createdAt,value
2018-07-02T00:02:11.826Z,18.20
2018-07-02T00:04:39.170Z,18.20
2018-07-02T00:07:18.684Z,18.20
2018-07-02T00:09:47.344Z,17.80
2018-07-02T00:12:15.878Z,17.80
2018-07-02T00:14:43.779Z,18.00
2018-07-02T00:17:11.162Z,17.70
2018-07-02T00:19:38.832Z,17.70
2018-07-02T00:22:06.168Z,17.70
2018-07-02T00:24:33.543Z,17.60
2018-07-02T00:27:00.905Z,17.60
2018-07-02T00:29:28.326Z,17.50
2018-07-02T00:31:55.689Z,17.60
2018-07-02T00:34:23.109Z,17.50
2018-07-02T00:36:50.470Z,17.50
2018-07-02T00:39:17.818Z,17.60
2018-07-02T00:41:45.236Z,17.40
2018-07-02T00:44:12.934Z,17.40
2018-07-02T00:46:40.407Z,17.30
2018-07-02T00:49:07.994Z,17.40
2018-07-02T00:51:35.405Z,17.20
2018-07-02T00:54:02.770Z,17.20
2018-07-02T00:56:30.216Z,17.40
2018-07-02T00:58:57.720Z,17.20
2018-07-02T01:01:26.303Z,17.10
2018-07-02T01:03:54.530Z,17.10
2018-07-02T01:06:22.576Z,17.10
2018-07-02T01:08:49.998Z,17.00
2018-07-02T01:11:17.395Z,17.00
2018-07-02T01:13:44.706Z,17.00
2018-07-02T01:16:12.177Z,17.00
2018-07-02T01:18:39.602Z,17.30
2018-07-02T01:21:07.078Z,16.70
2018-07-02T01:23:34.428Z,16.80
2018-07-02T01:26:02.018Z,16.70
2018-07-02T01:28:29.458Z,16.70
2018-07-02T01:30:57.075Z,16.70
2018-07-02T01:33:24.418Z,16.70
2018-07-02T01:35:51.793Z,16.60
2018-07-02T01:50:09.946Z,16.40
2018-07-02T01:52:37.518Z,16.30
2018-07-02T01:55:05.125Z,16.30
2018-07-02T01:57:32.674Z,16.20
2018-07-02T02:00:00.293Z,16.20
2018-07-02T02:02:27.915Z,16.20
2018-07-02T02:04:55.451Z,16.20
2018-07-02T02:07:22.900Z,16.20
2018-07-02T02:09:50.629Z,16.00
2018-07-02T02:12:18.202Z,16.20
2018-07-02T02:14:45.555Z,16.00
2018-07-02T02:17:13.122Z,16.10
2018-07-02T02:19:40.626Z,16.00
2018-07-02T02:22:08.002Z,16.00
2018-07-02T02:27:15.660Z,15.90
2018-07-02T02:29:43.014Z,15.90
2018-07-02T02:32:10.479Z,15.70
2018-07-02T02:34:37.818Z,15.90
2018-07-02T02:37:05.179Z,15.70
2018-07-02T02:39:32.562Z,15.70
2018-07-02T02:41:59.949Z,15.60
2018-07-02T02:44:27.512Z,15.60
2018-07-02T02:46:54.874Z,15.50
2018-07-02T02:49:22.335Z,15.50
2018-07-02T02:51:49.734Z,15.10
2018-07-02T02:54:17.090Z,15.60
2018-07-02T02:56:44.446Z,15.50
2018-07-02T02:59:11.817Z,15.50
2018-07-02T03:01:39.142Z,15.50
2018-07-02T03:04:06.526Z,15.40
2018-07-02T03:06:33.832Z,15.40
2018-07-02T03:09:01.174Z,15.40
2018-07-02T03:11:28.526Z,15.30
2018-07-02T03:13:55.950Z,15.60
2018-07-02T03:16:23.355Z,15.30
2018-07-02T03:18:50.754Z,15.20
2018-07-02T03:21:18.240Z,15.20
2018-07-02T03:23:45.674Z,15.20
2018-07-02T03:26:14.147Z,15.20
2018-07-02T03:28:41.480Z,15.20
2018-07-02T03:31:08.831Z,15.20
2018-07-02T03:34:39.891Z,15.10
2018-07-02T03:37:08.164Z,15.20
2018-07-02T03:39:35.711Z,14.90
2018-07-02T03:42:03.304Z,15.10
2018-07-02T03:44:30.888Z,15.10
2018-07-02T03:46:58.461Z,15.10
2018-07-02T03:52:05.749Z,15.10
2018-07-02T03:54:44.435Z,15.00
2018-07-02T03:57:23.410Z,15.00
2018-07-02T03:59:51.325Z,15.20
2018-07-02T04:02:19.680Z,15.30
2018-07-02T04:04:47.223Z,15.10
2018-07-02T04:07:15.204Z,15.00
2018-07-02T04:09:42.746Z,15.00
2018-07-02T04:12:10.331Z,15.40
2018-07-02T04:14:37.946Z,15.20
2018-07-02T04:17:05.537Z,15.30
2018-07-02T04:19:33.083Z,15.00
2018-07-02T04:22:00.634Z,15.00
2018-07-02T04:24:28.414Z,15.20
2018-07-02T04:26:56.062Z,15.00
2018-07-02T04:29:23.616Z,15.40
2018-07-02T04:31:51.148Z,15.30
2018-07-02T04:34:18.674Z,15.00
2018-07-02T04:36:46.364Z,15.00
2018-07-02T04:39:13.954Z,15.10
2018-07-02T04:41:41.478Z,15.10
2018-07-02T04:44:09.055Z,15.00
2018-07-02T04:46:36.757Z,15.10
2018-07-02T04:49:04.371Z,15.20
2018-07-02T04:51:31.936Z,15.50
2018-07-02T04:53:59.761Z,15.20
2018-07-02T04:56:27.435Z,15.20
2018-07-02T04:58:57.676Z,15.30
2018-07-02T05:01:25.234Z,15.30
2018-07-02T05:03:52.773Z,15.30
2018-07-02T05:06:20.302Z,15.30
2018-07-02T05:08:47.877Z,15.90
2018-07-02T05:11:15.505Z,15.40
2018-07-02T05:13:43.347Z,15.50
2018-07-02T05:16:10.710Z,15.50
2018-07-02T05:18:38.230Z,15.50
2018-07-02T05:21:05.806Z,15.50
2018-07-02T05:23:33.362Z,15.60
2018-07-02T05:26:01.923Z,15.60
2018-07-02T05:28:29.600Z,15.70
2018-07-02T05:30:57.175Z,15.80
2018-07-02T05:33:26.077Z,15.80
2018-07-02T05:35:53.666Z,15.80
2018-07-02T05:38:21.277Z,15.90
2018-07-02T05:40:48.822Z,16.00
2018-07-02T05:43:16.325Z,16.10
2018-07-02T05:45:43.870Z,16.40
2018-07-02T05:48:11.442Z,16.50
2018-07-02T05:50:39.901Z,16.40
2018-07-02T05:53:07.610Z,16.60
2018-07-02T05:55:35.176Z,16.70
2018-07-02T05:58:02.766Z,17.10
2018-07-02T06:00:30.635Z,17.50
2018-07-02T06:02:58.185Z,17.10
2018-07-02T06:05:25.767Z,17.40
2018-07-02T06:07:53.455Z,17.30
2018-07-02T06:10:20.986Z,17.40
2018-07-02T06:12:48.623Z,17.70
2018-07-02T06:15:16.363Z,17.60
2018-07-02T06:17:43.839Z,17.70
2018-07-02T06:20:11.419Z,17.80
2018-07-02T06:22:39.153Z,17.90
2018-07-02T06:25:06.768Z,18.50
2018-07-02T06:27:34.341Z,18.30
2018-07-02T06:30:01.932Z,18.60
2018-07-02T06:32:29.744Z,18.50
2018-07-02T06:34:57.344Z,18.50
2018-07-02T06:37:24.995Z,18.60
2018-07-02T06:39:52.566Z,18.70
2018-07-02T06:42:20.224Z,18.90
2018-07-02T06:44:48.080Z,19.10
2018-07-02T06:47:15.859Z,19.20
2018-07-02T06:49:43.382Z,19.40
2018-07-02T06:52:11.122Z,19.70
2018-07-02T06:54:38.683Z,19.60
2018-07-02T06:57:09.612Z,19.70
2018-07-02T06:59:37.142Z,19.80
2018-07-02T07:02:04.831Z,19.90
2018-07-02T07:04:32.496Z,20.10
2018-07-02T07:07:00.143Z,20.40
2018-07-02T07:09:27.694Z,20.40
2018-07-02T07:11:56.764Z,20.70
2018-07-02T07:14:24.323Z,20.80
2018-07-02T07:16:51.917Z,21.00
2018-07-02T07:19:19.462Z,21.20
2018-07-02T07:21:47.078Z,21.50
2018-07-02T07:24:19.848Z,21.70
2018-07-02T07:26:47.424Z,21.90
2018-07-02T07:29:14.982Z,22.20
2018-07-02T07:31:42.570Z,22.70
2018-07-02T07:34:10.122Z,23.60
2018-07-02T07:36:42.747Z,24.80
2018-07-02T07:39:12.252Z,26.30
2018-07-02T07:41:40.043Z,28.20
2018-07-02T07:44:07.582Z,29.60
2018-07-02T07:46:35.212Z,31.50
2018-07-02T07:49:08.017Z,33.10
2018-07-02T07:51:35.623Z,34.40
2018-07-02T07:54:03.318Z,35.70
2018-07-02T07:56:30.958Z,37.10
2018-07-02T07:58:58.507Z,38.50
2018-07-02T08:01:30.210Z,39.70
2018-07-02T08:03:57.785Z,40.50
2018-07-02T08:06:25.421Z,41.00
2018-07-02T08:08:53.246Z,41.40
2018-07-02T08:11:21.090Z,41.90
2018-07-02T08:13:53.551Z,41.90
2018-07-02T08:16:21.125Z,41.90
2018-07-02T08:18:48.924Z,42.10
2018-07-02T08:21:16.489Z,41.80
2018-07-02T08:23:44.163Z,41.90
2018-07-02T08:26:17.371Z,42.00
2018-07-02T08:28:44.726Z,41.90
2018-07-02T08:31:12.172Z,41.40
2018-07-02T08:33:39.586Z,40.70
2018-07-02T08:36:07.100Z,39.90
2018-07-02T08:38:34.456Z,38.30
2018-07-02T08:41:04.154Z,36.80
2018-07-02T08:43:31.491Z,34.90
2018-07-02T08:45:58.839Z,33.10
2018-07-02T08:48:26.339Z,31.50
2018-07-02T08:50:53.754Z,30.20
2018-07-02T08:53:26.078Z,29.20
2018-07-02T08:55:53.881Z,28.10
2018-07-02T08:58:21.331Z,27.40
2018-07-02T09:00:48.834Z,27.30
2018-07-02T09:03:16.249Z,26.70
2018-07-02T09:05:43.629Z,26.40
2018-07-02T09:08:11.044Z,26.20
2018-07-02T09:10:42.403Z,26.10
2018-07-02T09:13:09.734Z,25.80
2018-07-02T09:15:37.060Z,25.80
2018-07-02T09:18:04.422Z,25.80
2018-07-02T09:20:31.843Z,25.80
2018-07-02T09:22:59.275Z,25.70
2018-07-02T09:25:30.537Z,25.70
2018-07-02T09:27:57.898Z,25.70
2018-07-02T09:30:25.226Z,25.70
2018-07-02T09:32:52.560Z,25.60
2018-07-02T09:35:19.905Z,25.60
2018-07-02T09:37:47.338Z,25.70
2018-07-02T09:40:17.123Z,25.70
2018-07-02T09:42:44.521Z,25.70
2018-07-02T09:45:12.316Z,26.10
2018-07-02T09:47:39.619Z,26.00
2018-07-02T09:50:07.062Z,26.00
2018-07-02T09:52:39.104Z,26.00
2018-07-02T09:55:06.476Z,26.00
2018-07-02T09:57:33.899Z,26.00
2018-07-02T10:00:01.234Z,26.10
2018-07-02T10:02:28.717Z,26.20
2018-07-02T10:04:56.142Z,26.20
2018-07-02T10:07:23.530Z,26.30
2018-07-02T10:09:53.139Z,26.40
2018-07-02T10:12:20.498Z,26.50
2018-07-02T10:14:47.869Z,26.50
2018-07-02T10:17:15.219Z,26.60
2018-07-02T10:19:42.587Z,26.50
2018-07-02T10:22:10.209Z,26.50
2018-07-02T10:24:41.922Z,26.70
2018-07-02T10:27:09.357Z,26.70
2018-07-02T10:29:36.734Z,26.70
2018-07-02T10:32:04.140Z,26.70
2018-07-02T10:36:58.865Z,26.90
2018-07-02T10:39:26.225Z,26.90
2018-07-02T10:41:54.964Z,26.70
2018-07-02T10:44:22.402Z,27.00
2018-07-02T10:46:49.782Z,27.10
2018-07-02T10:49:17.142Z,27.20
2018-07-02T10:51:44.704Z,27.20
2018-07-02T10:54:12.095Z,27.30
2018-07-02T10:56:45.483Z,27.20
2018-07-02T10:59:12.830Z,27.30
2018-07-02T11:01:40.311Z,27.70
2018-07-02T11:04:07.695Z,27.50
2018-07-02T11:09:07.759Z,27.50
2018-07-02T11:11:35.223Z,27.50
2018-07-02T11:14:02.708Z,27.60
2018-07-02T11:16:30.239Z,27.60
2018-07-02T11:18:57.586Z,27.60
2018-07-02T11:21:27.045Z,27.80
2018-07-02T11:23:56.171Z,27.90
2018-07-02T11:26:23.521Z,27.70
2018-07-02T11:28:50.859Z,27.80
2018-07-02T11:31:18.257Z,27.80
2018-07-02T11:33:45.818Z,27.80
2018-07-02T11:36:17.091Z,27.80
2018-07-02T11:38:44.454Z,27.80
2018-07-02T11:41:12.135Z,27.80
2018-07-02T11:43:39.538Z,27.80
2018-07-02T11:46:07.190Z,27.90
2018-07-02T11:48:39.787Z,27.90
2018-07-02T11:51:07.173Z,27.80
2018-07-02T11:53:34.536Z,27.80
2018-07-02T11:56:01.984Z,27.90
2018-07-02T11:58:29.416Z,28.10
2018-07-02T12:01:02.265Z,28.20
2018-07-02T12:03:30.559Z,28.20
2018-07-02T12:05:57.909Z,28.20
2018-07-02T12:08:25.451Z,28.20
2018-07-02T12:10:52.906Z,28.20
2018-07-02T12:13:25.949Z,28.20
2018-07-02T12:15:54.410Z,28.30
2018-07-02T12:18:21.930Z,28.30
2018-07-02T12:20:49.342Z,28.30
2018-07-02T12:23:16.743Z,28.30
2018-07-02T12:25:44.172Z,28.30
2018-07-02T12:28:17.763Z,28.30
2018-07-02T12:30:45.205Z,28.30
2018-07-02T12:33:12.600Z,28.30
2018-07-02T12:35:40.027Z,28.30
2018-07-02T12:38:07.525Z,28.20
2018-07-02T12:40:34.971Z,28.20
2018-07-02T12:43:05.208Z,28.20
2018-07-02T12:45:32.526Z,28.20
2018-07-02T12:47:59.860Z,28.30
2018-07-02T12:50:27.274Z,28.30
2018-07-02T12:52:54.626Z,28.30
2018-07-02T12:55:28.759Z,28.30
2018-07-02T12:57:56.119Z,28.30
2018-07-02T13:00:23.513Z,28.30
2018-07-02T13:02:50.944Z,28.40
2018-07-02T13:05:18.427Z,28.50
2018-07-02T13:07:45.866Z,28.50
2018-07-02T13:10:13.278Z,28.50
2018-07-02T13:12:40.619Z,28.50
2018-07-02T13:15:08.227Z,28.40
2018-07-02T13:17:35.636Z,28.50
2018-07-02T13:20:03.600Z,28.40
2018-07-02T13:22:31.067Z,28.40
2018-07-02T13:24:58.454Z,28.40
2018-07-02T13:27:29.583Z,28.80
2018-07-02T13:29:57.090Z,28.50
2018-07-02T13:32:24.418Z,28.50
2018-07-02T13:34:52.259Z,28.50
2018-07-02T13:37:19.811Z,28.60
2018-07-02T13:39:47.183Z,28.50
2018-07-02T13:42:19.085Z,28.60
2018-07-02T13:44:46.880Z,28.60
2018-07-02T13:47:14.318Z,28.50
2018-07-02T13:49:41.748Z,28.10
2018-07-02T13:52:09.971Z,28.50
2018-07-02T13:54:37.638Z,28.60
2018-07-02T13:57:05.241Z,28.50
2018-07-02T13:59:32.648Z,28.40
2018-07-02T14:02:00.995Z,28.40
2018-07-02T14:04:28.430Z,28.40
2018-07-02T14:06:56.044Z,28.40
2018-07-02T14:09:23.431Z,28.30
2018-07-02T14:11:50.773Z,28.30
2018-07-02T14:14:18.268Z,28.30
2018-07-02T14:16:45.728Z,28.20
2018-07-02T14:19:13.096Z,28.20
2018-07-02T14:21:40.522Z,28.30
2018-07-02T14:24:08.174Z,28.20
2018-07-02T14:26:35.701Z,28.20
2018-07-02T14:29:03.124Z,28.20
2018-07-02T14:31:30.528Z,28.10
2018-07-02T14:33:58.018Z,28.10
2018-07-02T14:36:25.874Z,28.10
2018-07-02T14:38:53.246Z,28.20
2018-07-02T14:41:20.640Z,28.30
2018-07-02T14:43:48.105Z,28.40
2018-07-02T14:46:15.722Z,28.50
2018-07-02T14:48:43.211Z,28.50
2018-07-02T14:51:10.573Z,28.50
2018-07-02T14:53:37.942Z,28.60
2018-07-02T14:56:05.338Z,28.40
2018-07-02T14:58:32.739Z,28.50
2018-07-02T15:01:00.152Z,28.40
2018-07-02T15:03:27.779Z,28.40
2018-07-02T15:05:55.171Z,28.40
2018-07-02T15:08:22.863Z,28.40
2018-07-02T15:10:50.204Z,28.40
2018-07-02T15:13:17.694Z,28.30
2018-07-02T15:15:45.076Z,28.30
2018-07-02T15:18:14.556Z,28.30
2018-07-02T15:20:41.925Z,28.30
2018-07-02T15:23:09.329Z,28.40
2018-07-02T15:25:36.761Z,28.40
2018-07-02T15:28:04.227Z,28.30
2018-07-02T15:30:36.566Z,28.50
2018-07-02T15:33:04.009Z,28.50
2018-07-02T15:35:31.440Z,28.50
2018-07-02T15:37:58.827Z,28.50
2018-07-02T15:40:26.157Z,28.40
2018-07-02T15:42:53.567Z,28.30
2018-07-02T15:45:20.983Z,28.30
2018-07-02T15:47:48.476Z,28.40
2018-07-02T15:50:15.951Z,28.40
2018-07-02T15:52:43.387Z,28.30
2018-07-02T15:55:10.738Z,28.60
2018-07-02T15:57:38.142Z,28.20
2018-07-02T16:00:05.673Z,28.20
2018-07-02T16:02:37.150Z,28.10
2018-07-02T16:05:04.887Z,28.10
2018-07-02T16:07:32.347Z,28.00
2018-07-02T16:09:59.778Z,27.90
2018-07-02T16:12:27.134Z,27.90
2018-07-02T16:14:54.766Z,27.80
2018-07-02T16:17:22.226Z,27.90
2018-07-02T16:19:50.659Z,27.70
2018-07-02T16:22:18.010Z,27.70
2018-07-02T16:24:45.541Z,27.60
2018-07-02T16:27:13.110Z,27.60
2018-07-02T16:29:40.488Z,27.60
2018-07-02T16:34:35.310Z,27.60
2018-07-02T16:37:02.711Z,27.50
2018-07-02T16:39:30.102Z,27.60
2018-07-02T16:41:57.462Z,27.60
2018-07-02T16:44:24.795Z,27.50
2018-07-02T16:46:52.192Z,27.60
2018-07-02T16:49:19.688Z,27.60
2018-07-02T16:51:47.503Z,27.50
2018-07-02T16:54:14.918Z,27.50
2018-07-02T16:56:42.320Z,27.40
2018-07-02T16:59:11.644Z,27.20
2018-07-02T17:01:39.149Z,27.20
2018-07-02T17:04:06.883Z,27.20
2018-07-02T17:06:34.561Z,27.20
2018-07-02T17:09:08.239Z,27.00
2018-07-02T17:11:36.014Z,27.10
2018-07-02T17:14:07.884Z,27.10
2018-07-02T17:16:35.254Z,27.10
2018-07-02T17:19:02.670Z,27.10
2018-07-02T17:21:40.624Z,27.10
2018-07-02T17:24:13.123Z,27.00
2018-07-02T17:26:40.551Z,26.90
2018-07-02T17:29:08.005Z,26.90
2018-07-02T17:31:39.900Z,26.80
2018-07-02T17:34:07.283Z,26.70
2018-07-02T17:36:50.982Z,26.70
2018-07-02T17:39:19.533Z,26.50
2018-07-02T17:41:46.956Z,26.60
2018-07-02T17:44:14.959Z,26.60
2018-07-02T17:46:42.509Z,26.50
2018-07-02T17:49:09.919Z,26.50
2018-07-02T17:51:37.278Z,26.50
2018-07-02T17:54:04.918Z,26.40
2018-07-02T17:56:32.409Z,26.30
2018-07-02T17:59:05.497Z,26.40
2018-07-02T18:01:32.988Z,26.30
2018-07-02T18:04:00.430Z,26.30
2018-07-02T18:06:27.803Z,26.20
2018-07-02T18:08:55.302Z,26.20
2018-07-02T18:11:22.759Z,26.20
2018-07-02T18:13:50.204Z,26.00
2018-07-02T18:16:17.809Z,26.10
2018-07-02T18:18:45.243Z,26.10
2018-07-02T18:21:12.882Z,26.10
2018-07-02T18:23:40.747Z,26.00
2018-07-02T18:26:08.663Z,26.00
2018-07-02T18:28:36.762Z,25.90
2018-07-02T18:31:04.307Z,25.70
2018-07-02T18:33:31.702Z,25.70
2018-07-02T18:35:59.211Z,25.70
2018-07-02T18:38:26.595Z,25.60
2018-07-02T18:40:57.086Z,25.50
2018-07-02T18:43:26.637Z,25.50
2018-07-02T18:45:53.978Z,25.40
2018-07-02T18:48:21.431Z,25.40
2018-07-02T18:50:48.866Z,25.30
2018-07-02T18:53:16.333Z,25.10
2018-07-02T18:55:43.694Z,25.10
2018-07-02T18:58:11.076Z,25.30
2018-07-02T19:00:38.697Z,25.10
2018-07-02T19:03:06.212Z,25.00
2018-07-02T19:05:33.602Z,25.00
2018-07-02T19:08:01.004Z,25.00
2018-07-02T19:10:28.838Z,25.00
2018-07-02T19:12:56.254Z,24.80
2018-07-02T19:15:23.602Z,24.80
2018-07-02T19:17:51.160Z,24.80
2018-07-02T19:20:18.553Z,24.70
2018-07-02T19:22:45.930Z,24.70
2018-07-02T19:25:13.327Z,24.70
2018-07-02T19:27:41.010Z,24.60
2018-07-02T19:30:13.966Z,24.50
2018-07-02T19:32:41.597Z,24.50
2018-07-02T19:35:09.099Z,24.40
2018-07-02T19:37:47.965Z,24.30
2018-07-02T19:40:15.721Z,24.20
2018-07-02T19:42:44.701Z,24.20
2018-07-02T19:45:12.343Z,24.10
2018-07-02T19:47:39.939Z,24.10
2018-07-02T19:50:07.443Z,24.10
2018-07-02T19:55:02.596Z,23.90
2018-07-02T19:57:30.158Z,23.80
2018-07-02T19:59:57.611Z,23.80
2018-07-02T20:02:24.962Z,24.10
2018-07-02T20:04:52.342Z,23.70
2018-07-02T20:07:19.769Z,23.40
2018-07-02T20:09:47.093Z,23.50
2018-07-02T20:12:14.420Z,23.70
2018-07-02T20:14:42.559Z,23.60
2018-07-02T20:17:09.886Z,23.30
2018-07-02T20:19:37.238Z,23.30
2018-07-02T20:22:05.171Z,23.20
2018-07-02T20:24:32.617Z,23.10
2018-07-02T20:26:59.960Z,23.10
2018-07-02T20:29:27.464Z,23.10
2018-07-02T20:31:54.942Z,23.00
2018-07-02T20:34:22.774Z,22.90
2018-07-02T20:37:02.773Z,22.90
2018-07-02T20:39:33.145Z,22.70
2018-07-02T20:42:00.940Z,22.70
2018-07-02T20:44:28.527Z,22.60
2018-07-02T20:46:56.145Z,22.40
2018-07-02T20:49:28.200Z,22.50
2018-07-02T20:51:55.746Z,22.50
2018-07-02T20:54:23.334Z,22.40
2018-07-02T20:56:50.976Z,22.30
2018-07-02T20:59:18.643Z,22.30
2018-07-02T21:01:46.193Z,22.20
2018-07-02T21:04:13.731Z,22.00
2018-07-02T21:06:41.859Z,22.10
2018-07-02T21:09:10.519Z,22.00
2018-07-02T21:11:38.053Z,22.00
2018-07-02T21:14:06.010Z,21.90
2018-07-02T21:16:33.659Z,21.80
2018-07-02T21:19:01.295Z,21.80
2018-07-02T21:21:28.906Z,21.70
2018-07-02T21:23:56.620Z,21.70
2018-07-02T21:26:24.261Z,21.60
2018-07-02T21:28:51.949Z,21.60
2018-07-02T21:31:19.934Z,21.60
2018-07-02T21:33:47.581Z,21.50
2018-07-02T21:36:15.181Z,21.40
2018-07-02T21:38:42.857Z,21.40
2018-07-02T21:41:10.556Z,21.40
2018-07-02T21:43:38.193Z,21.30
2018-07-02T21:46:05.784Z,21.10
2018-07-02T21:48:33.474Z,21.20
2018-07-02T21:51:01.470Z,21.20
2018-07-02T21:53:29.085Z,21.10
2018-07-02T21:55:56.698Z,21.10
2018-07-02T21:58:24.263Z,21.10
2018-07-02T22:00:51.863Z,21.10
2018-07-02T22:03:19.771Z,20.90
2018-07-02T22:05:47.366Z,20.90
2018-07-02T22:08:15.131Z,20.80
2018-07-02T22:10:42.914Z,20.70
2018-07-02T22:13:10.569Z,20.70
2018-07-02T22:15:38.313Z,20.70
2018-07-02T22:18:06.814Z,20.60
2018-07-02T22:20:34.559Z,20.80
2018-07-02T22:23:02.300Z,20.60
2018-07-02T22:25:30.066Z,20.50
2018-07-02T22:27:57.649Z,20.40
2018-07-02T22:30:25.253Z,20.30
2018-07-02T22:32:53.262Z,20.30
2018-07-02T22:35:22.652Z,20.10
2018-07-02T22:37:50.469Z,20.20
2018-07-02T22:40:18.156Z,20.10
2018-07-02T22:42:45.795Z,20.00
2018-07-02T22:45:13.478Z,20.00
2018-07-02T22:47:41.042Z,20.00
2018-07-02T22:50:08.741Z,20.00
2018-07-02T22:52:36.557Z,19.90
2018-07-02T22:55:04.416Z,19.80
2018-07-02T22:57:32.330Z,19.90
2018-07-02T22:59:59.853Z,19.70
2018-07-02T23:02:27.495Z,19.60
2018-07-02T23:04:55.147Z,19.60
2018-07-02T23:07:22.919Z,19.60
2018-07-02T23:09:50.583Z,19.50
2018-07-02T23:12:18.251Z,19.70
2018-07-02T23:14:45.928Z,19.20
2018-07-02T23:17:13.572Z,19.20
2018-07-02T23:19:41.219Z,19.20
2018-07-02T23:22:09.291Z,19.20
2018-07-02T23:24:36.962Z,19.10
2018-07-02T23:27:04.522Z,19.00
2018-07-02T23:31:59.774Z,19.10
2018-07-02T23:34:27.328Z,19.10
2018-07-02T23:36:54.911Z,18.90
2018-07-02T23:39:22.592Z,18.80
2018-07-02T23:41:50.241Z,18.80
2018-07-02T23:44:18.200Z,18.70
2018-07-02T23:46:45.744Z,18.70
2018-07-02T23:49:13.444Z,18.70
2018-07-02T23:51:41.056Z,18.60
2018-07-02T23:54:08.682Z,18.60
2018-07-02T23:56:37.208Z,18.50
2018-07-02T23:59:04.947Z,18.50
